Skip Navigation Links
NOAA logo - Click to go to the NOAA homepage
NOAA's National Weather Service
Alaska Aviation Weather Unit
  NWS logo - Click to go to the NWS homepage
Left Navbar Graphic     22 AKDT = 06 GMT

   
NOAA is celebrating 200 years of science, service, and stewardship. Visit the NOAA 200th celebration Web site to learn more.
USA.gov is the U.S. Government's official Web portal to all Federal, state and local government Web resources and services.
Facebook
NWS on Facebook

Important Change Regarding the AAWU Web Presence

 

Over the last several months, the AAWU has been working to navigate its webpages to a nationally supported server. Security, as well as other needs, have necessitated the change.  We have been given an extension for the site changeover while we diligently work at addressing feedback received. As of July 14, 2017, aawu.arh.noaa.gov will be discontinued. The new AAWU web address is weather.gov/aawu. It is now live and will run in-parallel with the old site until it is discontinued on July 14, 2017. Please continue to send any feedback or questions regarding the new webpages to nws.ar.aawu.webauthors@noaa.gov.  Thank you for your patience during this time of transition.
AAWU Home :: Display TAF Add Bookmark
TAF PACV 260537Z 2606/2706 07004KT P6SM FEW007 OVC012
     FM262200 24004KT P6SM BKN020 OVC030=

METAR PACV 260053Z VRB04KT 10SM SCT011 BKN015 OVC044 14/13 A2999 RMK AO2 RAE23 SLP157 P0000 T01440128= METAR PACV 260153Z 20005KT 10SM SCT011 BKN015 OVC044 14/12 A2999 RMK AO2 SLP154 T01440122= METAR PACV 260253Z 22005KT 10SM SCT011 BKN017 OVC044 14/12 A2998 RMK AO2 SLP153 60000 T01440122 56008= SPECI PACV 260451Z 07004KT 10SM BKN011 OVC044 12/11 A2997 RMK AO2= METAR PACV 260453Z 07004KT 10SM BKN011 OVC044 12/11 A2997 RMK AO2 SLP149 T01220111= METAR PACV 260553Z 08005KT 10SM OVC013 11/11 A2997 RMK AO2 SLP149 60000 T01110106 10150 20111 56002=
 Alaska TAF Map

NOAA's National Weather Service
Alaska Aviation Weather Unit
6930 Sand Lake Road
Anchorage, AK 99502-1845
Disclaimer
Credits
Glossary
Privacy Policy
About Us
Career Opportunities
Contact AAWU Internet Services Site last modified: April, 17th 2012